createdAt,value
2022-12-06T00:01:20.505Z,9.24
2022-12-06T00:03:52.471Z,9.27
2022-12-06T00:06:21.694Z,9.15
2022-12-06T00:08:50.290Z,9.20
2022-12-06T00:11:26.035Z,8.88
2022-12-06T00:13:58.964Z,9.05
2022-12-06T00:16:27.502Z,9.15
2022-12-06T00:18:56.086Z,9.30
2022-12-06T00:21:26.088Z,8.45
2022-12-06T00:23:56.242Z,8.91
2022-12-06T00:26:24.304Z,8.81
2022-12-06T00:28:53.649Z,8.77
2022-12-06T00:31:22.858Z,8.73
2022-12-06T00:33:51.479Z,8.26
2022-12-06T00:36:21.593Z,8.74
2022-12-06T00:38:49.715Z,8.56
2022-12-06T00:41:19.841Z,8.71
2022-12-06T00:43:47.715Z,8.70
2022-12-06T00:46:18.205Z,8.76
2022-12-06T00:48:47.018Z,8.67
2022-12-06T00:51:16.160Z,8.75
2022-12-06T00:53:45.047Z,8.53
2022-12-06T00:56:13.248Z,8.43
2022-12-06T00:58:41.112Z,8.43
2022-12-06T01:01:12.066Z,8.13
2022-12-06T01:03:40.688Z,8.29
2022-12-06T01:06:11.153Z,8.28
2022-12-06T01:08:39.560Z,8.41
2022-12-06T01:11:08.701Z,8.51
2022-12-06T01:13:36.575Z,8.42
2022-12-06T01:16:08.970Z,8.65
2022-12-06T01:18:37.032Z,8.57
2022-12-06T01:21:06.753Z,8.62
2022-12-06T01:23:34.246Z,8.29
2022-12-06T01:26:03.180Z,8.29
2022-12-06T01:28:31.105Z,7.69
2022-12-06T01:30:58.945Z,7.93
2022-12-06T01:33:26.816Z,7.91
2022-12-06T01:35:54.403Z,8.07
2022-12-06T01:38:21.966Z,8.01
2022-12-06T01:40:50.119Z,7.89
2022-12-06T01:43:33.033Z,7.79
2022-12-06T01:46:07.551Z,8.14
2022-12-06T01:48:35.522Z,7.96
2022-12-06T01:51:03.886Z,7.56
2022-12-06T01:53:32.248Z,8.09
2022-12-06T01:55:59.852Z,7.86
2022-12-06T01:58:32.575Z,7.91
2022-12-06T02:01:01.491Z,7.90
2022-12-06T02:03:33.309Z,7.87
2022-12-06T02:06:05.980Z,8.33
2022-12-06T02:08:34.384Z,8.42
2022-12-06T02:11:03.458Z,8.63
2022-12-06T02:13:32.336Z,8.65
2022-12-06T02:16:18.906Z,8.60
2022-12-06T02:19:01.188Z,8.53
2022-12-06T02:21:52.805Z,8.67
2022-12-06T02:24:45.483Z,8.99
2022-12-06T02:27:36.953Z,8.76
2022-12-06T02:30:30.701Z,9.05
2022-12-06T02:33:21.512Z,9.06
2022-12-06T02:35:59.580Z,8.76
2022-12-06T02:38:38.701Z,8.89
2022-12-06T02:41:14.952Z,9.38
2022-12-06T02:43:46.333Z,9.34
2022-12-06T02:46:14.540Z,9.07
2022-12-06T02:48:43.251Z,8.88
2022-12-06T02:51:14.054Z,8.76
2022-12-06T02:53:45.389Z,8.80
2022-12-06T02:56:14.267Z,8.52
2022-12-06T02:58:42.071Z,8.66
2022-12-06T03:01:18.419Z,8.68
2022-12-06T03:04:10.847Z,8.93
2022-12-06T03:06:53.742Z,8.79
2022-12-06T03:09:49.709Z,8.51
2022-12-06T03:12:29.220Z,8.25
2022-12-06T03:15:15.116Z,8.15
2022-12-06T03:17:49.085Z,7.86
2022-12-06T03:20:27.564Z,8.31
2022-12-06T03:23:00.007Z,8.44
2022-12-06T03:25:28.326Z,8.46
2022-12-06T03:27:57.059Z,7.95
2022-12-06T03:30:25.043Z,7.68
2022-12-06T03:32:52.965Z,7.67
2022-12-06T03:35:25.629Z,7.75
2022-12-06T03:38:05.130Z,7.66
2022-12-06T03:40:35.707Z,7.81
2022-12-06T03:43:03.993Z,7.53
2022-12-06T03:45:38.169Z,7.75
2022-12-06T03:48:16.349Z,7.62
2022-12-06T03:50:47.531Z,7.36
2022-12-06T03:53:17.663Z,7.52
2022-12-06T03:55:45.852Z,7.52
2022-12-06T03:58:13.873Z,7.68
2022-12-06T04:00:41.669Z,7.56
2022-12-06T04:03:09.505Z,7.55
2022-12-06T04:05:37.059Z,7.77
2022-12-06T04:08:04.951Z,7.67
2022-12-06T04:10:32.899Z,7.92
2022-12-06T04:13:05.823Z,7.62
2022-12-06T04:15:39.174Z,7.77
2022-12-06T04:18:16.214Z,8.05
2022-12-06T04:21:20.811Z,8.16
2022-12-06T04:23:52.277Z,8.57
2022-12-06T04:26:22.514Z,8.62
2022-12-06T04:29:09.827Z,8.43
2022-12-06T04:31:58.300Z,8.62
2022-12-06T04:34:44.818Z,8.54
2022-12-06T04:37:31.305Z,8.55
2022-12-06T04:39:59.248Z,8.69
2022-12-06T04:42:46.056Z,8.81
2022-12-06T04:45:13.829Z,8.98
2022-12-06T04:47:43.797Z,8.84
2022-12-06T04:50:11.197Z,8.80
2022-12-06T04:52:38.877Z,9.08
2022-12-06T04:55:06.829Z,9.24
2022-12-06T04:57:34.400Z,9.07
2022-12-06T05:00:02.560Z,9.04
2022-12-06T05:02:30.501Z,9.04
2022-12-06T05:04:58.042Z,9.23
2022-12-06T05:07:25.594Z,9.11
2022-12-06T05:09:53.932Z,9.06
2022-12-06T05:12:21.484Z,8.93
2022-12-06T05:14:49.527Z,9.05
2022-12-06T05:17:17.357Z,9.29
2022-12-06T05:19:45.464Z,9.08
2022-12-06T05:22:13.379Z,9.12
2022-12-06T05:24:41.152Z,9.12
2022-12-06T05:27:08.792Z,9.09
2022-12-06T05:29:36.215Z,9.15
2022-12-06T05:32:04.301Z,9.21
2022-12-06T05:34:31.960Z,9.18
2022-12-06T05:36:59.580Z,9.33
2022-12-06T05:39:27.486Z,9.35
2022-12-06T05:41:54.977Z,9.21
2022-12-06T05:44:22.859Z,9.17
2022-12-06T05:46:50.528Z,9.15
2022-12-06T05:49:18.211Z,9.12
2022-12-06T05:51:45.636Z,9.11
2022-12-06T05:54:13.419Z,9.07
2022-12-06T05:56:40.788Z,9.01
2022-12-06T05:59:08.285Z,9.11
2022-12-06T06:01:36.219Z,9.12
2022-12-06T06:04:04.074Z,9.12
2022-12-06T06:06:32.056Z,9.16
2022-12-06T06:08:59.682Z,9.04
2022-12-06T06:11:27.570Z,8.96
2022-12-06T06:13:55.132Z,8.95
2022-12-06T06:16:22.962Z,9.34
2022-12-06T06:18:50.870Z,9.35
2022-12-06T06:21:18.405Z,9.33
2022-12-06T06:23:45.799Z,9.07
2022-12-06T06:26:13.676Z,9.16
2022-12-06T06:28:41.321Z,9.04
2022-12-06T06:31:08.981Z,9.05
2022-12-06T06:33:36.941Z,9.44
2022-12-06T06:36:04.709Z,9.43
2022-12-06T06:38:32.151Z,9.18
2022-12-06T06:41:03.920Z,9.04
2022-12-06T06:43:32.239Z,9.07
2022-12-06T06:46:02.202Z,9.03
2022-12-06T06:48:33.189Z,9.09
2022-12-06T06:51:09.691Z,9.15
2022-12-06T06:53:38.194Z,9.12
2022-12-06T06:56:06.274Z,9.21
2022-12-06T06:58:33.927Z,9.13
2022-12-06T07:01:03.251Z,9.02
2022-12-06T07:03:31.710Z,8.86
2022-12-06T07:06:04.593Z,9.21
2022-12-06T07:08:32.500Z,9.37
2022-12-06T07:11:00.668Z,9.03
2022-12-06T07:13:29.904Z,9.05
2022-12-06T07:16:00.944Z,9.06
2022-12-06T07:18:28.671Z,9.14
2022-12-06T07:21:05.144Z,9.04
2022-12-06T07:23:34.816Z,9.00
2022-12-06T07:26:16.349Z,9.17
2022-12-06T07:28:45.648Z,9.12
2022-12-06T07:31:14.531Z,8.96
2022-12-06T07:33:43.231Z,9.05
2022-12-06T07:36:13.548Z,9.32
2022-12-06T07:38:42.820Z,9.35
2022-12-06T07:41:31.687Z,9.01
2022-12-06T07:44:19.052Z,8.96
2022-12-06T07:46:47.611Z,9.00
2022-12-06T07:49:16.927Z,8.93
2022-12-06T07:51:45.261Z,8.98
2022-12-06T07:54:13.984Z,9.11
2022-12-06T07:56:42.583Z,8.90
2022-12-06T07:59:10.961Z,8.74
2022-12-06T08:01:39.362Z,9.07
2022-12-06T08:04:07.266Z,8.84
2022-12-06T08:06:35.247Z,8.83
2022-12-06T08:09:03.272Z,8.82
2022-12-06T08:11:31.371Z,8.79
2022-12-06T08:13:59.215Z,8.83
2022-12-06T08:16:26.972Z,8.90
2022-12-06T08:18:55.435Z,8.98
2022-12-06T08:21:23.172Z,8.90
2022-12-06T08:23:52.631Z,9.05
2022-12-06T08:26:20.795Z,8.90
2022-12-06T08:28:48.600Z,8.68
2022-12-06T08:31:19.262Z,8.95
2022-12-06T08:33:47.471Z,8.84
2022-12-06T08:36:18.685Z,9.03
2022-12-06T08:38:47.309Z,9.10
2022-12-06T08:41:34.115Z,8.79
2022-12-06T08:44:02.501Z,8.80
2022-12-06T08:46:32.087Z,8.77
2022-12-06T08:48:59.969Z,8.70
2022-12-06T08:51:28.682Z,8.52
2022-12-06T08:53:56.920Z,8.70
2022-12-06T08:56:24.859Z,8.89
2022-12-06T08:58:53.817Z,9.17
2022-12-06T09:01:30.166Z,8.74
2022-12-06T09:04:02.289Z,8.83
2022-12-06T09:06:30.498Z,8.87
2022-12-06T09:08:58.519Z,8.78
2022-12-06T09:11:26.822Z,8.90
2022-12-06T09:13:54.640Z,8.86
2022-12-06T09:16:23.516Z,8.93
2022-12-06T09:18:52.012Z,8.90
2022-12-06T09:21:24.986Z,9.28
2022-12-06T09:23:55.660Z,9.36
2022-12-06T09:26:27.333Z,9.59
2022-12-06T09:28:55.875Z,9.23
2022-12-06T09:31:24.939Z,9.53
2022-12-06T09:33:52.950Z,9.25
2022-12-06T09:36:24.410Z,9.64
2022-12-06T09:39:00.441Z,9.30
2022-12-06T09:42:03.247Z,9.75
2022-12-06T09:44:50.044Z,9.51
2022-12-06T09:47:37.523Z,9.69
2022-12-06T09:50:35.364Z,9.82
2022-12-06T09:53:16.269Z,9.73
2022-12-06T09:56:10.881Z,9.64
2022-12-06T09:58:44.279Z,9.32
2022-12-06T10:01:28.598Z,8.66
2022-12-06T10:04:15.625Z,8.80
2022-12-06T10:07:23.601Z,8.93
2022-12-06T10:10:00.816Z,9.20
2022-12-06T10:12:49.182Z,9.42
2022-12-06T10:15:35.872Z,8.86
2022-12-06T10:18:13.933Z,8.94
2022-12-06T10:20:49.376Z,8.76
2022-12-06T10:23:33.201Z,9.05
2022-12-06T10:26:15.177Z,9.67
2022-12-06T10:29:10.494Z,9.71
2022-12-06T10:31:41.192Z,9.41
2022-12-06T10:34:11.710Z,10.09
2022-12-06T10:36:53.555Z,10.27
2022-12-06T10:39:29.363Z,10.28
2022-12-06T10:42:11.636Z,9.76
2022-12-06T10:44:48.994Z,10.48
2022-12-06T10:47:28.511Z,10.48
2022-12-06T10:50:03.353Z,10.46
2022-12-06T10:52:49.822Z,10.65
2022-12-06T10:55:35.736Z,10.34
2022-12-06T10:58:27.521Z,10.73
2022-12-06T11:01:19.402Z,10.69
2022-12-06T11:03:57.837Z,10.43
2022-12-06T11:06:34.893Z,10.21
2022-12-06T11:09:14.479Z,10.62
2022-12-06T11:11:43.680Z,10.66
2022-12-06T11:14:26.417Z,10.50
2022-12-06T11:17:12.788Z,10.68
2022-12-06T11:19:44.988Z,10.44
2022-12-06T11:22:24.739Z,10.27
2022-12-06T11:24:58.052Z,10.13
2022-12-06T11:27:34.898Z,9.98
2022-12-06T11:30:04.473Z,10.02
2022-12-06T11:32:32.037Z,9.85
2022-12-06T11:35:00.931Z,9.84
2022-12-06T11:37:31.352Z,9.83
2022-12-06T11:40:22.890Z,9.90
2022-12-06T11:42:50.774Z,10.26
2022-12-06T11:45:28.324Z,10.03
2022-12-06T11:47:57.635Z,9.49
2022-12-06T11:50:29.463Z,9.60
2022-12-06T11:53:14.279Z,10.10
2022-12-06T11:55:44.086Z,9.90
2022-12-06T11:58:14.182Z,9.93
2022-12-06T12:01:13.925Z,9.88
2022-12-06T12:03:44.146Z,9.89
2022-12-06T12:06:19.617Z,10.03
2022-12-06T12:08:52.141Z,9.84
2022-12-06T12:11:22.039Z,9.88
2022-12-06T12:13:56.655Z,9.73
2022-12-06T12:16:43.266Z,9.49
2022-12-06T12:19:49.417Z,9.59
2022-12-06T12:22:53.776Z,9.99
2022-12-06T12:25:31.140Z,9.38
2022-12-06T12:28:00.359Z,10.00
2022-12-06T12:30:36.948Z,9.74
2022-12-06T12:33:11.806Z,9.74
2022-12-06T12:35:46.126Z,9.99
2022-12-06T12:38:18.953Z,10.20
2022-12-06T12:40:50.441Z,9.93
2022-12-06T12:43:22.164Z,10.03
2022-12-06T12:46:12.429Z,9.89
2022-12-06T12:48:42.148Z,9.49
2022-12-06T12:51:28.432Z,9.88
2022-12-06T12:53:59.643Z,9.92
2022-12-06T12:56:28.006Z,10.03
2022-12-06T12:58:56.937Z,9.80
2022-12-06T13:01:24.545Z,9.58
2022-12-06T13:04:00.943Z,10.05
2022-12-06T13:06:50.386Z,9.55
2022-12-06T13:09:33.194Z,9.82
2022-12-06T13:12:10.111Z,10.09
2022-12-06T13:14:39.909Z,10.48
2022-12-06T13:17:08.550Z,10.25
2022-12-06T13:19:40.578Z,10.45
2022-12-06T13:22:10.922Z,10.01
2022-12-06T13:24:39.145Z,9.73
2022-12-06T13:27:13.343Z,10.10
2022-12-06T13:29:46.196Z,9.90
2022-12-06T13:32:17.772Z,9.75
2022-12-06T13:35:29.553Z,9.75
2022-12-06T13:38:00.596Z,10.18
2022-12-06T13:40:45.457Z,10.06
2022-12-06T13:43:25.376Z,9.74
2022-12-06T13:46:18.930Z,9.71
2022-12-06T13:49:29.524Z,9.79
2022-12-06T13:52:01.880Z,9.60
2022-12-06T13:54:30.624Z,9.48
2022-12-06T13:56:58.890Z,9.74
2022-12-06T13:59:34.167Z,9.43
2022-12-06T14:02:01.879Z,9.40
2022-12-06T14:07:02.960Z,9.51
2022-12-06T14:09:44.972Z,9.60
2022-12-06T14:12:27.757Z,9.43
2022-12-06T14:15:00.702Z,9.35
2022-12-06T14:18:01.702Z,9.11
2022-12-06T14:20:31.546Z,9.48
2022-12-06T14:22:59.589Z,9.47
2022-12-06T14:25:29.855Z,9.65
2022-12-06T14:28:06.767Z,9.22
2022-12-06T14:30:35.245Z,9.26
2022-12-06T14:33:02.909Z,9.36
2022-12-06T14:35:36.826Z,9.36
2022-12-06T14:38:29.674Z,9.04
2022-12-06T14:41:16.337Z,9.22
2022-12-06T14:43:47.374Z,9.17
2022-12-06T14:46:16.576Z,9.14
2022-12-06T14:49:03.458Z,9.36
2022-12-06T14:51:38.645Z,9.19
2022-12-06T14:54:19.988Z,9.07
2022-12-06T14:56:47.843Z,9.18
2022-12-06T14:59:28.331Z,9.29
2022-12-06T15:02:22.061Z,9.19
2022-12-06T15:04:49.947Z,9.19
2022-12-06T15:07:40.837Z,9.12
2022-12-06T15:10:19.734Z,8.91
2022-12-06T15:12:56.258Z,8.76
2022-12-06T15:15:39.904Z,8.78
2022-12-06T15:18:28.927Z,8.65
2022-12-06T15:20:56.753Z,8.67
2022-12-06T15:23:36.132Z,8.61
2022-12-06T15:26:06.812Z,8.73
2022-12-06T15:28:37.686Z,8.75
2022-12-06T15:31:07.020Z,8.59
2022-12-06T15:33:34.567Z,8.24
2022-12-06T15:36:02.214Z,8.45
2022-12-06T15:38:30.042Z,8.39
2022-12-06T15:40:57.477Z,8.42
2022-12-06T15:43:33.266Z,8.15
2022-12-06T15:46:04.175Z,8.28
2022-12-06T15:48:37.577Z,8.21
2022-12-06T15:51:10.376Z,8.32
2022-12-06T15:53:38.698Z,8.16
2022-12-06T15:56:06.778Z,8.07
2022-12-06T15:58:34.311Z,8.03
2022-12-06T16:01:11.100Z,7.82
2022-12-06T16:03:38.987Z,7.70
2022-12-06T16:06:11.886Z,7.84
2022-12-06T16:08:39.905Z,7.90
2022-12-06T16:11:12.270Z,7.54
2022-12-06T16:13:41.219Z,7.43
2022-12-06T16:16:09.191Z,7.35
2022-12-06T16:18:37.007Z,7.30
2022-12-06T16:21:05.307Z,7.10
2022-12-06T16:26:42.470Z,7.05
2022-12-06T16:29:23.524Z,7.08
2022-12-06T16:31:51.664Z,7.48
2022-12-06T16:34:19.254Z,7.41
2022-12-06T16:37:06.703Z,7.52
2022-12-06T16:39:34.964Z,7.51
2022-12-06T16:42:09.655Z,7.51
2022-12-06T16:45:15.911Z,7.48
2022-12-06T16:47:48.855Z,7.24
2022-12-06T16:50:21.992Z,7.38
2022-12-06T16:52:51.225Z,7.74
2022-12-06T16:55:18.978Z,7.73
2022-12-06T16:57:47.175Z,7.60
2022-12-06T17:00:15.612Z,7.76
2022-12-06T17:02:44.777Z,7.64
